METAR Data
IDs: Format: Raw Decoded Include TAF

Data at: 0123 UTC 24 Sep 2018

KCIN 240115Z AUTO 14005KT 10SM CLR 17/13 A2996 RMK AO2
KCIN 240055Z AUTO 14005KT 10SM CLR 18/13 A2995 RMK AO2
KCIN 240035Z AUTO 15006KT 10SM CLR 20/13 A2995 RMK AO2
KCIN 240015Z AUTO 16007KT 10SM CLR 21/13 A2994 RMK AO2
KCIN 232355Z AUTO 16008KT 10SM CLR 22/12 A2994 RMK AO2
KCIN 232335Z AUTO 16009KT 10SM CLR 23/12 A2994 RMK AO2
KCIN 232315Z AUTO 16008G14KT 10SM CLR 24/12 A2994 RMK AO2
KCIN 232255Z AUTO 17009G17KT 10SM CLR 25/11 A2994 RMK AO2
KCIN 232235Z AUTO 16014KT 10SM CLR 26/11 A2994 RMK AO2
KCIN 232215Z AUTO 16013KT 10SM CLR 26/11 A2994 RMK AO2
KCIN 232155Z AUTO 17013G20KT 10SM CLR 26/11 A2994 RMK AO2
KCIN 232135Z AUTO 16014G20KT 10SM CLR 26/10 A2994 RMK AO2
KCIN 232115Z AUTO 17014G21KT 10SM CLR 27/10 A2995 RMK AO2
KCIN 232055Z AUTO 17011G17KT 10SM CLR 27/10 A2995 RMK AO2
KCIN 232035Z AUTO 18012G18KT 10SM CLR 27/10 A2996 RMK AO2
KCIN 232015Z AUTO 16014G20KT 10SM CLR 26/10 A2997 RMK AO2
KCIN 231955Z AUTO 19014G20KT 10SM CLR 26/10 A2997 RMK AO2
KCIN 231935Z AUTO 16012G18KT 10SM CLR 26/10 A2998 RMK AO2
KCIN 231915Z AUTO 16012G19KT 140V200 10SM CLR 26/10 A2999 RMK AO2
KCIN 231855Z AUTO 17014G19KT 10SM CLR 26/10 A3000 RMK AO2
KCIN 231835Z AUTO 18013KT 10SM CLR 26/10 A3001 RMK AO2
KCIN 231815Z AUTO 19012KT 10SM CLR 25/10 A3002 RMK AO2
KCIN 231755Z AUTO 16012KT 10SM CLR 25/10 A3002 RMK AO2
KCIN 231735Z AUTO 16011G17KT 10SM CLR 25/11 A3003 RMK AO2
KCIN 231715Z AUTO 18012KT 10SM CLR 24/11 A3004 RMK AO2
KCIN 231655Z AUTO 19008G16KT 140V210 10SM CLR 23/11 A3005 RMK AO2
KCIN 231635Z AUTO 19010G17KT 10SM CLR 23/12 A3005 RMK AO2
KCIN 231615Z AUTO 18012KT 10SM CLR 22/12 A3006 RMK AO2
KCIN 231555Z AUTO 20010G17KT 10SM CLR 22/12 A3006 RMK AO2
KCIN 231535Z AUTO 19013KT 10SM CLR 21/13 A3007 RMK AO2
KCIN 231515Z AUTO 19011G16KT 10SM CLR 20/12 A3007 RMK AO2
KCIN 231455Z AUTO 19009G16KT 10SM CLR 18/13 A3007 RMK AO2
KCIN 231435Z AUTO 19010KT 10SM CLR 17/13 A3007 RMK AO2
KCIN 231415Z AUTO 19009KT 10SM CLR 16/13 A3007 RMK AO2
KCIN 231355Z AUTO 18006G12KT 10SM CLR 14/13 A3007 RMK AO2
KCIN 231335Z AUTO 16005KT 10SM CLR 12/12 A3007 RMK AO2
KCIN 231315Z AUTO 17005KT 10SM CLR 10/10 A3007 RMK AO2
KCIN 231255Z AUTO 15005KT 10SM CLR 09/09 A3007 RMK AO2
KCIN 231235Z AUTO 14005KT 10SM CLR 08/08 A3007 RMK AO2
KCIN 231215Z AUTO 15005KT 10SM CLR 07/07 A3007 RMK AO2
KCIN 231155Z AUTO 15004KT 10SM CLR 07/07 A3007 RMK AO2
KCIN 231135Z AUTO 14004KT 10SM FEW047 FEW055 06/06 A3007 RMK AO2
KCIN 231115Z AUTO 12003KT 10SM FEW048 07/07 A3007 RMK AO2
KCIN 231055Z AUTO 00000KT 10SM FEW049 FEW055 07/07 A3007 RMK AO2
KCIN 231035Z AUTO 00000KT 10SM FEW050 FEW060 07/07 A3006 RMK AO2
KCIN 231015Z AUTO 00000KT 08/08 A3006 RMK AO2
KCIN 230955Z AUTO 18006KT 10SM CLR 07/07 A3006 RMK AO2
KCIN 230935Z AUTO 00000KT 10SM SCT055 07/07 A3007 RMK AO2
KCIN 230915Z AUTO 00000KT 10SM FEW055 07/07 A3007 RMK AO2
KCIN 230855Z AUTO 00000KT 10SM FEW055 07/07 A3007 RMK AO2
KCIN 230835Z AUTO 17004KT 10SM FEW055 08/08 A3007 RMK AO2
KCIN 230815Z AUTO 17005KT 10SM CLR 09/09 A3007 RMK AO2
KCIN 230755Z AUTO 17006KT 10SM CLR 08/08 A3008 RMK AO2
KCIN 230735Z AUTO 17004KT 10SM FEW055 09/09 A3008 RMK AO2
KCIN 230715Z AUTO 17005KT 10SM FEW055 09/09 A3008 RMK AO2
KCIN 230655Z AUTO 17004KT 10SM FEW060 09/09 A3008 RMK AO2
KCIN 230635Z AUTO 19004KT 10SM CLR 09/09 A3008 RMK AO2
KCIN 230615Z AUTO 00000KT 10SM CLR 09/09 A3008 RMK AO2
KCIN 230555Z AUTO 16004KT 10SM CLR 10/09 A3008 RMK AO2
KCIN 230535Z AUTO 00000KT 10SM CLR 10/10 A3009 RMK AO2
KCIN 230515Z AUTO 00000KT 10SM CLR 10/10 A3009 RMK AO2
KCIN 230455Z AUTO 00000KT 10SM CLR 10/10 A3009 RMK AO2
KCIN 230435Z AUTO 19005KT 10SM CLR 11/10 A3009 RMK AO2
KCIN 230415Z AUTO 17003KT 10SM CLR 11/10 A3009 RMK AO2
KCIN 230355Z AUTO 17006KT 10SM CLR 12/10 A3009 RMK AO2
KCIN 230335Z AUTO 16005KT 10SM CLR 13/10 A3009 RMK AO2
KCIN 230315Z AUTO 16007KT 10SM CLR 13/11 A3009 RMK AO2
KCIN 230255Z AUTO 17007KT 10SM CLR 13/11 A3009 RMK AO2
KCIN 230235Z AUTO 16005KT 10SM CLR 14/11 A3010 RMK AO2
KCIN 230215Z AUTO 15004KT 10SM CLR 13/10 A3009 RMK AO2
KCIN 230155Z AUTO 15005KT 10SM CLR 13/10 A3009 RMK AO2
KCIN 230135Z AUTO 15005KT 10SM CLR 14/10 A3008 RMK AO2
KCIN 230115Z AUTO 15005KT 10SM CLR 14/10 A3008 RMK AO2
KCIN 230055Z AUTO 15006KT 10SM CLR 15/10 A3008 RMK AO2
KCIN 230035Z AUTO 14006KT 10SM CLR 16/10 A3009 RMK AO2
KCIN 230015Z AUTO 14006KT 10SM CLR 17/09 A3009 RMK AO2
KCIN 222355Z AUTO 15006KT 10SM CLR 19/09 A3009 RMK AO2
KCIN 222335Z AUTO 15007KT 110V170 10SM CLR 20/08 A3009 RMK AO2
KCIN 222315Z AUTO VRB06KT 10SM CLR 21/08 A3009 RMK AO2
KCIN 222255Z AUTO 18009KT 10SM CLR 21/07 A3010 RMK AO2
KCIN 222235Z AUTO 18009KT 150V210 10SM CLR 21/06 A3010 RMK AO2
KCIN 222215Z AUTO 17007G13KT 110V190 10SM CLR 22/07 A3011 RMK AO2
KCIN 222155Z AUTO VRB06G12KT 10SM CLR 22/07 A3011 RMK AO2
KCIN 222135Z AUTO 16007G15KT 140V210 10SM CLR 21/08 A3012 RMK AO2
KCIN 222115Z AUTO 16008G15KT 130V190 10SM CLR 21/08 A3013 RMK AO2
KCIN 222055Z AUTO 17008KT 10SM CLR 21/08 A3014 RMK AO2
KCIN 222035Z AUTO 17008G14KT 10SM CLR 21/08 A3015 RMK AO2
KCIN 222015Z AUTO VRB05G14KT 10SM CLR 21/08 A3015 RMK AO2
KCIN 221955Z AUTO 16010KT 10SM CLR 21/08 A3016 RMK AO2
KCIN 221935Z AUTO 17008G14KT 10SM CLR 20/07 A3017 RMK AO2
KCIN 221915Z AUTO 20009KT 10SM CLR 20/08 A3019 RMK AO2
KCIN 221855Z AUTO 18007G20KT 10SM CLR 19/07 A3020 RMK AO2
KCIN 221835Z AUTO 13008G13KT 10SM CLR 19/07 A3021 RMK AO2
KCIN 221815Z AUTO 16007KT 140V200 10SM CLR 18/07 A3022 RMK AO2
KCIN 221755Z AUTO 14008G13KT 10SM CLR 18/07 A3023 RMK AO2
KCIN 221735Z AUTO 17008KT 140V210 10SM CLR 18/08 A3024 RMK AO2
KCIN 221715Z AUTO 18010KT 140V210 9SM CLR 17/08 A3025 RMK AO2
KCIN 221655Z AUTO 19008G14KT 160V220 10SM CLR 16/08 A3026 RMK AO2
KCIN 221635Z AUTO VRB06G13KT 10SM CLR 16/08 A3027 RMK AO2
KCIN 221615Z AUTO VRB06G12KT 10SM CLR 15/08 A3028 RMK AO2
KCIN 221555Z AUTO 17009G16KT 10SM CLR 15/08 A3029 RMK AO2
KCIN 221535Z AUTO 14009G16KT 10SM CLR 14/08 A3029 RMK AO2
KCIN 221515Z AUTO 16009G15KT 10SM CLR 13/08 A3030 RMK AO2
KCIN 221455Z AUTO 15008KT 10SM CLR 12/09 A3030 RMK AO2
KCIN 221435Z AUTO 15008G14KT 10SM CLR 11/09 A3030 RMK AO2
KCIN 221415Z AUTO 16007KT 10SM CLR 10/09 A3031 RMK AO2
KCIN 221355Z AUTO 15007KT 10SM CLR 09/09 A3031 RMK AO2
KCIN 221335Z AUTO 00000KT 10SM CLR 08/08 A3031 RMK AO2